sensor_id;sensor_type;location;lat;lon;timestamp;P1;durP1;ratioP1;P2;durP2;ratioP2
48623;SDS011;34422;45.802;16.114;2022-12-17T00:00:47;28.85;;;16.85;;
48623;SDS011;34422;45.802;16.114;2022-12-17T00:03:33;29.83;;;17.17;;
48623;SDS011;34422;45.802;16.114;2022-12-17T00:06:18;31.38;;;17.90;;
48623;SDS011;34422;45.802;16.114;2022-12-17T00:09:04;31.92;;;17.25;;
48623;SDS011;34422;45.802;16.114;2022-12-17T00:11:50;29.33;;;18.02;;
48623;SDS011;34422;45.802;16.114;2022-12-17T00:14:36;32.92;;;18.70;;
48623;SDS011;34422;45.802;16.114;2022-12-17T00:17:21;29.02;;;17.35;;
48623;SDS011;34422;45.802;16.114;2022-12-17T00:20:06;28.77;;;16.70;;
48623;SDS011;34422;45.802;16.114;2022-12-17T00:22:59;28.63;;;16.63;;
48623;SDS011;34422;45.802;16.114;2022-12-17T00:25:49;27.20;;;15.60;;
48623;SDS011;34422;45.802;16.114;2022-12-17T00:28:38;29.40;;;16.30;;
48623;SDS011;34422;45.802;16.114;2022-12-17T00:31:26;25.00;;;14.55;;
48623;SDS011;34422;45.802;16.114;2022-12-17T00:34:13;28.13;;;16.23;;
48623;SDS011;34422;45.802;16.114;2022-12-17T00:36:58;24.67;;;14.77;;
48623;SDS011;34422;45.802;16.114;2022-12-17T00:39:44;27.15;;;17.48;;
48623;SDS011;34422;45.802;16.114;2022-12-17T00:42:29;26.73;;;15.45;;
48623;SDS011;34422;45.802;16.114;2022-12-17T00:45:14;25.33;;;15.50;;
48623;SDS011;34422;45.802;16.114;2022-12-17T00:48:00;27.23;;;15.48;;
48623;SDS011;34422;45.802;16.114;2022-12-17T00:50:45;25.80;;;14.68;;
48623;SDS011;34422;45.802;16.114;2022-12-17T00:53:31;26.42;;;15.18;;
48623;SDS011;34422;45.802;16.114;2022-12-17T00:56:16;24.40;;;14.55;;
48623;SDS011;34422;45.802;16.114;2022-12-17T00:59:01;28.80;;;16.60;;
48623;SDS011;34422;45.802;16.114;2022-12-17T01:01:46;24.98;;;15.55;;
48623;SDS011;34422;45.802;16.114;2022-12-17T01:04:31;26.15;;;16.95;;
48623;SDS011;34422;45.802;16.114;2022-12-17T01:07:16;25.30;;;15.48;;
48623;SDS011;34422;45.802;16.114;2022-12-17T01:10:02;25.35;;;15.05;;
48623;SDS011;34422;45.802;16.114;2022-12-17T01:12:48;27.27;;;15.43;;
48623;SDS011;34422;45.802;16.114;2022-12-17T01:15:34;26.20;;;16.00;;
48623;SDS011;34422;45.802;16.114;2022-12-17T01:18:19;25.60;;;15.90;;
48623;SDS011;34422;45.802;16.114;2022-12-17T01:21:04;28.08;;;16.40;;
48623;SDS011;34422;45.802;16.114;2022-12-17T01:23:49;28.88;;;16.15;;
48623;SDS011;34422;45.802;16.114;2022-12-17T01:26:34;26.60;;;15.52;;
48623;SDS011;34422;45.802;16.114;2022-12-17T01:29:20;28.15;;;16.00;;
48623;SDS011;34422;45.802;16.114;2022-12-17T01:32:05;30.35;;;17.65;;
48623;SDS011;34422;45.802;16.114;2022-12-17T01:34:51;27.00;;;17.25;;
48623;SDS011;34422;45.802;16.114;2022-12-17T01:37:36;30.35;;;17.42;;
48623;SDS011;34422;45.802;16.114;2022-12-17T01:40:23;29.15;;;17.02;;
48623;SDS011;34422;45.802;16.114;2022-12-17T01:43:12;32.75;;;18.50;;
48623;SDS011;34422;45.802;16.114;2022-12-17T01:45:58;34.13;;;18.52;;
48623;SDS011;34422;45.802;16.114;2022-12-17T01:48:44;32.45;;;18.60;;
48623;SDS011;34422;45.802;16.114;2022-12-17T01:51:31;33.90;;;15.93;;
48623;SDS011;34422;45.802;16.114;2022-12-17T01:54:19;33.50;;;17.58;;
48623;SDS011;34422;45.802;16.114;2022-12-17T01:57:05;33.35;;;18.08;;
48623;SDS011;34422;45.802;16.114;2022-12-17T01:59:55;30.95;;;17.60;;
48623;SDS011;34422;45.802;16.114;2022-12-17T02:02:43;32.85;;;18.52;;
48623;SDS011;34422;45.802;16.114;2022-12-17T02:05:33;35.92;;;19.80;;
48623;SDS011;34422;45.802;16.114;2022-12-17T02:14:21;32.78;;;19.02;;
48623;SDS011;34422;45.802;16.114;2022-12-17T02:17:16;37.88;;;21.63;;
48623;SDS011;34422;45.802;16.114;2022-12-17T02:20:10;37.63;;;20.67;;
48623;SDS011;34422;45.802;16.114;2022-12-17T02:23:08;33.03;;;18.17;;
48623;SDS011;34422;45.802;16.114;2022-12-17T02:26:35;32.72;;;17.67;;
48623;SDS011;34422;45.802;16.114;2022-12-17T02:29:22;36.50;;;20.75;;
48623;SDS011;34422;45.802;16.114;2022-12-17T02:32:11;34.45;;;20.52;;
48623;SDS011;34422;45.802;16.114;2022-12-17T02:35:01;32.60;;;18.75;;
48623;SDS011;34422;45.802;16.114;2022-12-17T02:37:54;33.47;;;19.15;;
48623;SDS011;34422;45.802;16.114;2022-12-17T02:40:59;34.63;;;18.38;;
48623;SDS011;34422;45.802;16.114;2022-12-17T02:43:46;35.85;;;20.55;;
48623;SDS011;34422;45.802;16.114;2022-12-17T02:46:32;37.60;;;18.70;;
48623;SDS011;34422;45.802;16.114;2022-12-17T02:49:18;32.80;;;18.20;;
48623;SDS011;34422;45.802;16.114;2022-12-17T02:52:04;27.30;;;16.15;;
48623;SDS011;34422;45.802;16.114;2022-12-17T02:54:51;32.45;;;18.77;;
48623;SDS011;34422;45.802;16.114;2022-12-17T02:57:37;27.67;;;16.17;;
48623;SDS011;34422;45.802;16.114;2022-12-17T03:00:22;29.02;;;15.25;;
48623;SDS011;34422;45.802;16.114;2022-12-17T03:03:07;30.10;;;17.20;;
48623;SDS011;34422;45.802;16.114;2022-12-17T03:05:52;28.23;;;16.38;;
48623;SDS011;34422;45.802;16.114;2022-12-17T03:08:38;28.08;;;15.98;;
48623;SDS011;34422;45.802;16.114;2022-12-17T03:11:28;25.30;;;14.90;;
48623;SDS011;34422;45.802;16.114;2022-12-17T03:14:14;29.02;;;15.88;;
48623;SDS011;34422;45.802;16.114;2022-12-17T03:16:59;27.25;;;16.25;;
48623;SDS011;34422;45.802;16.114;2022-12-17T03:19:45;29.30;;;15.98;;
48623;SDS011;34422;45.802;16.114;2022-12-17T03:22:30;26.80;;;15.55;;
48623;SDS011;34422;45.802;16.114;2022-12-17T03:25:16;31.13;;;16.67;;
48623;SDS011;34422;45.802;16.114;2022-12-17T03:28:02;28.33;;;16.02;;
48623;SDS011;34422;45.802;16.114;2022-12-17T03:30:55;31.30;;;16.48;;
48623;SDS011;34422;45.802;16.114;2022-12-17T03:33:42;28.02;;;16.63;;
48623;SDS011;34422;45.802;16.114;2022-12-17T03:36:27;28.23;;;17.17;;
48623;SDS011;34422;45.802;16.114;2022-12-17T03:39:12;26.85;;;16.10;;
48623;SDS011;34422;45.802;16.114;2022-12-17T03:41:58;28.80;;;16.88;;
48623;SDS011;34422;45.802;16.114;2022-12-17T03:44:44;30.70;;;16.40;;
48623;SDS011;34422;45.802;16.114;2022-12-17T03:47:30;28.23;;;15.75;;
48623;SDS011;34422;45.802;16.114;2022-12-17T03:50:15;31.55;;;17.85;;
48623;SDS011;34422;45.802;16.114;2022-12-17T03:53:02;28.85;;;16.55;;
48623;SDS011;34422;45.802;16.114;2022-12-17T03:55:48;27.63;;;15.80;;
48623;SDS011;34422;45.802;16.114;2022-12-17T03:58:33;30.58;;;16.00;;
48623;SDS011;34422;45.802;16.114;2022-12-17T04:01:19;28.30;;;15.10;;
48623;SDS011;34422;45.802;16.114;2022-12-17T04:04:04;26.10;;;15.38;;
48623;SDS011;34422;45.802;16.114;2022-12-17T04:06:50;28.58;;;14.80;;
48623;SDS011;34422;45.802;16.114;2022-12-17T04:09:35;29.13;;;15.75;;
48623;SDS011;34422;45.802;16.114;2022-12-17T04:12:20;28.45;;;15.63;;
48623;SDS011;34422;45.802;16.114;2022-12-17T04:15:06;25.50;;;15.18;;
48623;SDS011;34422;45.802;16.114;2022-12-17T04:17:51;27.08;;;15.02;;
48623;SDS011;34422;45.802;16.114;2022-12-17T04:20:36;25.85;;;14.13;;
48623;SDS011;34422;45.802;16.114;2022-12-17T04:23:21;26.27;;;14.13;;
48623;SDS011;34422;45.802;16.114;2022-12-17T04:26:07;25.00;;;13.85;;
48623;SDS011;34422;45.802;16.114;2022-12-17T04:29:09;31.52;;;15.95;;
48623;SDS011;34422;45.802;16.114;2022-12-17T04:31:55;28.40;;;15.48;;
48623;SDS011;34422;45.802;16.114;2022-12-17T04:34:40;29.17;;;14.88;;
48623;SDS011;34422;45.802;16.114;2022-12-17T04:37:25;28.17;;;16.45;;
48623;SDS011;34422;45.802;16.114;2022-12-17T04:40:10;23.58;;;14.70;;
48623;SDS011;34422;45.802;16.114;2022-12-17T04:42:56;26.35;;;15.57;;
48623;SDS011;34422;45.802;16.114;2022-12-17T04:45:50;32.35;;;16.95;;
48623;SDS011;34422;45.802;16.114;2022-12-17T04:48:35;30.90;;;17.00;;
48623;SDS011;34422;45.802;16.114;2022-12-17T04:51:21;30.45;;;16.85;;
48623;SDS011;34422;45.802;16.114;2022-12-17T04:54:14;29.02;;;15.90;;
48623;SDS011;34422;45.802;16.114;2022-12-17T04:56:59;30.65;;;16.98;;
48623;SDS011;34422;45.802;16.114;2022-12-17T04:59:44;34.67;;;18.13;;
48623;SDS011;34422;45.802;16.114;2022-12-17T05:02:29;32.10;;;18.10;;
48623;SDS011;34422;45.802;16.114;2022-12-17T05:05:15;29.30;;;15.48;;
48623;SDS011;34422;45.802;16.114;2022-12-17T05:08:00;32.10;;;18.27;;
48623;SDS011;34422;45.802;16.114;2022-12-17T05:10:46;32.38;;;16.67;;
48623;SDS011;34422;45.802;16.114;2022-12-17T05:13:31;36.40;;;19.02;;
48623;SDS011;34422;45.802;16.114;2022-12-17T05:16:17;34.17;;;19.10;;
48623;SDS011;34422;45.802;16.114;2022-12-17T05:19:03;32.05;;;18.90;;
48623;SDS011;34422;45.802;16.114;2022-12-17T05:21:49;33.22;;;18.38;;
48623;SDS011;34422;45.802;16.114;2022-12-17T05:24:35;33.75;;;19.20;;
48623;SDS011;34422;45.802;16.114;2022-12-17T05:27:20;37.10;;;20.73;;
48623;SDS011;34422;45.802;16.114;2022-12-17T05:30:06;36.42;;;21.25;;
48623;SDS011;34422;45.802;16.114;2022-12-17T05:33:01;47.22;;;22.65;;
48623;SDS011;34422;45.802;16.114;2022-12-17T05:35:47;37.10;;;20.42;;
48623;SDS011;34422;45.802;16.114;2022-12-17T05:38:33;41.50;;;23.13;;
48623;SDS011;34422;45.802;16.114;2022-12-17T05:41:18;44.20;;;23.77;;
48623;SDS011;34422;45.802;16.114;2022-12-17T05:44:03;46.83;;;24.75;;
48623;SDS011;34422;45.802;16.114;2022-12-17T05:46:49;44.63;;;22.70;;
48623;SDS011;34422;45.802;16.114;2022-12-17T05:49:34;42.92;;;23.80;;
48623;SDS011;34422;45.802;16.114;2022-12-17T05:52:20;43.95;;;24.20;;
48623;SDS011;34422;45.802;16.114;2022-12-17T05:55:05;47.80;;;24.83;;
48623;SDS011;34422;45.802;16.114;2022-12-17T05:57:50;49.45;;;24.45;;
48623;SDS011;34422;45.802;16.114;2022-12-17T06:00:36;51.03;;;25.63;;
48623;SDS011;34422;45.802;16.114;2022-12-17T06:03:21;48.55;;;26.75;;
48623;SDS011;34422;45.802;16.114;2022-12-17T06:06:07;57.45;;;27.25;;
48623;SDS011;34422;45.802;16.114;2022-12-17T06:08:54;51.92;;;28.83;;
48623;SDS011;34422;45.802;16.114;2022-12-17T06:11:40;53.03;;;28.08;;
48623;SDS011;34422;45.802;16.114;2022-12-17T06:14:25;55.17;;;28.75;;
48623;SDS011;34422;45.802;16.114;2022-12-17T06:17:11;52.55;;;28.17;;
48623;SDS011;34422;45.802;16.114;2022-12-17T06:19:56;49.80;;;25.17;;
48623;SDS011;34422;45.802;16.114;2022-12-17T06:22:41;58.22;;;29.88;;
48623;SDS011;34422;45.802;16.114;2022-12-17T06:25:26;53.40;;;28.40;;
48623;SDS011;34422;45.802;16.114;2022-12-17T06:28:12;53.25;;;28.33;;
48623;SDS011;34422;45.802;16.114;2022-12-17T06:30:57;48.40;;;26.95;;
48623;SDS011;34422;45.802;16.114;2022-12-17T06:33:42;54.05;;;28.48;;
48623;SDS011;34422;45.802;16.114;2022-12-17T06:36:28;54.25;;;28.05;;
48623;SDS011;34422;45.802;16.114;2022-12-17T06:39:13;50.63;;;27.65;;
48623;SDS011;34422;45.802;16.114;2022-12-17T06:41:59;55.30;;;27.58;;
48623;SDS011;34422;45.802;16.114;2022-12-17T06:44:44;57.25;;;29.58;;
48623;SDS011;34422;45.802;16.114;2022-12-17T06:47:29;63.28;;;30.67;;
48623;SDS011;34422;45.802;16.114;2022-12-17T06:50:15;62.50;;;30.98;;
48623;SDS011;34422;45.802;16.114;2022-12-17T06:53:01;54.35;;;28.23;;
48623;SDS011;34422;45.802;16.114;2022-12-17T06:55:47;56.20;;;28.88;;
48623;SDS011;34422;45.802;16.114;2022-12-17T06:58:33;55.85;;;30.27;;
48623;SDS011;34422;45.802;16.114;2022-12-17T07:01:18;60.63;;;29.25;;
48623;SDS011;34422;45.802;16.114;2022-12-17T07:04:04;54.20;;;30.08;;
48623;SDS011;34422;45.802;16.114;2022-12-17T07:06:49;56.40;;;29.33;;
48623;SDS011;34422;45.802;16.114;2022-12-17T07:09:35;59.92;;;29.10;;
48623;SDS011;34422;45.802;16.114;2022-12-17T07:12:20;59.97;;;29.20;;
48623;SDS011;34422;45.802;16.114;2022-12-17T07:15:05;60.38;;;30.77;;
48623;SDS011;34422;45.802;16.114;2022-12-17T07:17:55;57.33;;;28.60;;
48623;SDS011;34422;45.802;16.114;2022-12-17T07:20:42;60.97;;;31.08;;
48623;SDS011;34422;45.802;16.114;2022-12-17T07:23:27;57.40;;;30.58;;
48623;SDS011;34422;45.802;16.114;2022-12-17T07:26:12;59.22;;;31.38;;
48623;SDS011;34422;45.802;16.114;2022-12-17T07:28:58;59.88;;;29.17;;
48623;SDS011;34422;45.802;16.114;2022-12-17T07:31:43;61.63;;;31.13;;
48623;SDS011;34422;45.802;16.114;2022-12-17T07:34:28;55.10;;;29.92;;
48623;SDS011;34422;45.802;16.114;2022-12-17T07:37:14;59.22;;;30.33;;
48623;SDS011;34422;45.802;16.114;2022-12-17T07:39:59;56.72;;;29.25;;
48623;SDS011;34422;45.802;16.114;2022-12-17T07:42:44;57.50;;;30.23;;
48623;SDS011;34422;45.802;16.114;2022-12-17T07:45:29;56.22;;;28.83;;
48623;SDS011;34422;45.802;16.114;2022-12-17T07:48:16;60.75;;;31.38;;
48623;SDS011;34422;45.802;16.114;2022-12-17T07:51:02;60.47;;;29.00;;
48623;SDS011;34422;45.802;16.114;2022-12-17T07:53:47;71.90;;;34.25;;
48623;SDS011;34422;45.802;16.114;2022-12-17T07:56:32;77.72;;;36.22;;
48623;SDS011;34422;45.802;16.114;2022-12-17T07:59:18;94.40;;;43.17;;
48623;SDS011;34422;45.802;16.114;2022-12-17T08:02:03;81.45;;;39.60;;
48623;SDS011;34422;45.802;16.114;2022-12-17T08:04:49;68.40;;;36.03;;
48623;SDS011;34422;45.802;16.114;2022-12-17T08:07:34;64.13;;;34.63;;
48623;SDS011;34422;45.802;16.114;2022-12-17T08:10:19;79.72;;;41.88;;
48623;SDS011;34422;45.802;16.114;2022-12-17T08:13:05;71.18;;;36.22;;
48623;SDS011;34422;45.802;16.114;2022-12-17T08:15:53;60.15;;;32.25;;
48623;SDS011;34422;45.802;16.114;2022-12-17T08:18:38;59.22;;;32.58;;
48623;SDS011;34422;45.802;16.114;2022-12-17T08:21:24;55.22;;;30.67;;
48623;SDS011;34422;45.802;16.114;2022-12-17T08:24:09;57.38;;;31.65;;
48623;SDS011;34422;45.802;16.114;2022-12-17T08:26:54;63.97;;;33.03;;
48623;SDS011;34422;45.802;16.114;2022-12-17T08:29:40;70.07;;;33.35;;
48623;SDS011;34422;45.802;16.114;2022-12-17T08:32:25;62.65;;;30.90;;
48623;SDS011;34422;45.802;16.114;2022-12-17T08:35:11;106.10;;;55.15;;
48623;SDS011;34422;45.802;16.114;2022-12-17T08:38:00;56.95;;;29.77;;
48623;SDS011;34422;45.802;16.114;2022-12-17T08:40:46;51.67;;;28.10;;
48623;SDS011;34422;45.802;16.114;2022-12-17T08:43:32;53.03;;;29.13;;
48623;SDS011;34422;45.802;16.114;2022-12-17T08:46:17;51.22;;;26.67;;
48623;SDS011;34422;45.802;16.114;2022-12-17T08:49:02;81.30;;;37.90;;
48623;SDS011;34422;45.802;16.114;2022-12-17T08:51:47;44.90;;;25.48;;
48623;SDS011;34422;45.802;16.114;2022-12-17T08:54:32;54.28;;;28.63;;
48623;SDS011;34422;45.802;16.114;2022-12-17T08:57:18;53.13;;;30.23;;
48623;SDS011;34422;45.802;16.114;2022-12-17T09:00:03;52.45;;;28.05;;
48623;SDS011;34422;45.802;16.114;2022-12-17T09:02:54;47.63;;;27.33;;
48623;SDS011;34422;45.802;16.114;2022-12-17T09:05:43;45.17;;;24.55;;
48623;SDS011;34422;45.802;16.114;2022-12-17T09:08:29;46.70;;;27.05;;
48623;SDS011;34422;45.802;16.114;2022-12-17T09:11:14;47.00;;;26.80;;
48623;SDS011;34422;45.802;16.114;2022-12-17T09:13:59;65.40;;;42.60;;
48623;SDS011;34422;45.802;16.114;2022-12-17T09:16:47;46.63;;;28.08;;
48623;SDS011;34422;45.802;16.114;2022-12-17T09:19:33;58.63;;;32.03;;
48623;SDS011;34422;45.802;16.114;2022-12-17T09:22:18;52.35;;;29.00;;
48623;SDS011;34422;45.802;16.114;2022-12-17T09:25:04;67.88;;;36.30;;
48623;SDS011;34422;45.802;16.114;2022-12-17T09:27:49;52.72;;;31.50;;
48623;SDS011;34422;45.802;16.114;2022-12-17T09:30:35;52.33;;;27.35;;
48623;SDS011;34422;45.802;16.114;2022-12-17T09:33:20;48.72;;;26.95;;
48623;SDS011;34422;45.802;16.114;2022-12-17T09:36:05;48.47;;;25.70;;
48623;SDS011;34422;45.802;16.114;2022-12-17T09:38:51;55.58;;;27.52;;
48623;SDS011;34422;45.802;16.114;2022-12-17T09:47:45;49.30;;;27.83;;
48623;SDS011;34422;45.802;16.114;2022-12-17T09:50:41;55.15;;;28.90;;
48623;SDS011;34422;45.802;16.114;2022-12-17T09:53:31;56.33;;;29.13;;
48623;SDS011;34422;45.802;16.114;2022-12-17T09:56:22;57.70;;;31.52;;
48623;SDS011;34422;45.802;16.114;2022-12-17T09:59:20;42.70;;;24.67;;
48623;SDS011;34422;45.802;16.114;2022-12-17T10:02:16;52.72;;;31.50;;
48623;SDS011;34422;45.802;16.114;2022-12-17T10:05:04;46.58;;;26.63;;
48623;SDS011;34422;45.802;16.114;2022-12-17T10:07:52;53.33;;;28.30;;
48623;SDS011;34422;45.802;16.114;2022-12-17T10:10:40;51.92;;;27.65;;
48623;SDS011;34422;45.802;16.114;2022-12-17T10:13:29;49.17;;;26.73;;
48623;SDS011;34422;45.802;16.114;2022-12-17T10:16:26;49.58;;;25.80;;
48623;SDS011;34422;45.802;16.114;2022-12-17T10:19:25;46.88;;;27.15;;
48623;SDS011;34422;45.802;16.114;2022-12-17T10:22:16;52.50;;;27.65;;
48623;SDS011;34422;45.802;16.114;2022-12-17T10:25:15;54.35;;;29.08;;
48623;SDS011;34422;45.802;16.114;2022-12-17T10:28:02;56.67;;;31.30;;
48623;SDS011;34422;45.802;16.114;2022-12-17T10:30:49;66.32;;;35.08;;
48623;SDS011;34422;45.802;16.114;2022-12-17T10:33:36;52.97;;;28.98;;
48623;SDS011;34422;45.802;16.114;2022-12-17T10:36:23;49.97;;;27.20;;
48623;SDS011;34422;45.802;16.114;2022-12-17T10:39:12;48.35;;;27.05;;
48623;SDS011;34422;45.802;16.114;2022-12-17T10:42:00;56.05;;;27.42;;
48623;SDS011;34422;45.802;16.114;2022-12-17T10:44:46;47.67;;;26.42;;
48623;SDS011;34422;45.802;16.114;2022-12-17T10:47:32;48.83;;;26.45;;
48623;SDS011;34422;45.802;16.114;2022-12-17T10:50:19;49.13;;;27.25;;
48623;SDS011;34422;45.802;16.114;2022-12-17T10:53:22;50.28;;;27.85;;
48623;SDS011;34422;45.802;16.114;2022-12-17T10:56:19;48.88;;;27.08;;
48623;SDS011;34422;45.802;16.114;2022-12-17T10:59:10;47.05;;;26.33;;
48623;SDS011;34422;45.802;16.114;2022-12-17T11:01:57;49.30;;;27.15;;
48623;SDS011;34422;45.802;16.114;2022-12-17T11:04:52;52.30;;;27.17;;
48623;SDS011;34422;45.802;16.114;2022-12-17T11:07:39;48.35;;;26.52;;
48623;SDS011;34422;45.802;16.114;2022-12-17T11:10:28;55.97;;;28.88;;
48623;SDS011;34422;45.802;16.114;2022-12-17T11:13:21;50.22;;;26.52;;
48623;SDS011;34422;45.802;16.114;2022-12-17T11:16:42;50.60;;;27.45;;
48623;SDS011;34422;45.802;16.114;2022-12-17T11:22:34;50.88;;;28.20;;
48623;SDS011;34422;45.802;16.114;2022-12-17T11:28:14;48.75;;;25.85;;
48623;SDS011;34422;45.802;16.114;2022-12-17T11:31:18;50.75;;;27.65;;
48623;SDS011;34422;45.802;16.114;2022-12-17T11:37:16;68.00;;;34.78;;
48623;SDS011;34422;45.802;16.114;2022-12-17T11:49:44;42.63;;;24.13;;
48623;SDS011;34422;45.802;16.114;2022-12-17T11:55:51;52.57;;;27.57;;
48623;SDS011;34422;45.802;16.114;2022-12-17T12:05:33;51.35;;;28.23;;
48623;SDS011;34422;45.802;16.114;2022-12-17T12:08:33;46.72;;;27.10;;
48623;SDS011;34422;45.802;16.114;2022-12-17T12:11:42;46.50;;;27.02;;
48623;SDS011;34422;45.802;16.114;2022-12-17T12:14:41;49.30;;;27.17;;
48623;SDS011;34422;45.802;16.114;2022-12-17T12:17:36;49.22;;;28.77;;
48623;SDS011;34422;45.802;16.114;2022-12-17T12:26:22;51.75;;;28.08;;
48623;SDS011;34422;45.802;16.114;2022-12-17T12:32:55;59.72;;;31.88;;
48623;SDS011;34422;45.802;16.114;2022-12-17T12:35:58;62.88;;;34.13;;
48623;SDS011;34422;45.802;16.114;2022-12-17T12:38:46;62.45;;;34.13;;
48623;SDS011;34422;45.802;16.114;2022-12-17T12:44:36;64.20;;;35.00;;
48623;SDS011;34422;45.802;16.114;2022-12-17T12:47:42;60.28;;;32.45;;
48623;SDS011;34422;45.802;16.114;2022-12-17T12:53:25;56.78;;;32.28;;
48623;SDS011;34422;45.802;16.114;2022-12-17T12:59:24;63.47;;;32.80;;
48623;SDS011;34422;45.802;16.114;2022-12-17T13:02:33;66.05;;;33.78;;
48623;SDS011;34422;45.802;16.114;2022-12-17T13:10:49;55.30;;;29.05;;
48623;SDS011;34422;45.802;16.114;2022-12-17T13:15:47;53.08;;;28.58;;
48623;SDS011;34422;45.802;16.114;2022-12-17T13:18:28;57.53;;;30.02;;
48623;SDS011;34422;45.802;16.114;2022-12-17T13:21:04;55.92;;;30.52;;
48623;SDS011;34422;45.802;16.114;2022-12-17T13:23:52;55.85;;;30.02;;
48623;SDS011;34422;45.802;16.114;2022-12-17T13:26:29;60.65;;;34.03;;
48623;SDS011;34422;45.802;16.114;2022-12-17T13:29:22;53.88;;;27.67;;
48623;SDS011;34422;45.802;16.114;2022-12-17T13:34:39;55.13;;;29.83;;
48623;SDS011;34422;45.802;16.114;2022-12-17T13:43:15;57.70;;;29.58;;
48623;SDS011;34422;45.802;16.114;2022-12-17T13:45:44;53.40;;;30.95;;
48623;SDS011;34422;45.802;16.114;2022-12-17T13:48:22;59.85;;;31.30;;
48623;SDS011;34422;45.802;16.114;2022-12-17T13:50:55;55.47;;;28.75;;
48623;SDS011;34422;45.802;16.114;2022-12-17T13:53:30;55.97;;;31.10;;
48623;SDS011;34422;45.802;16.114;2022-12-17T13:56:00;52.10;;;29.15;;
48623;SDS011;34422;45.802;16.114;2022-12-17T13:58:28;54.90;;;31.48;;
48623;SDS011;34422;45.802;16.114;2022-12-17T14:01:04;56.00;;;30.27;;
48623;SDS011;34422;45.802;16.114;2022-12-17T14:03:42;55.65;;;30.85;;
48623;SDS011;34422;45.802;16.114;2022-12-17T14:06:14;57.22;;;30.00;;
48623;SDS011;34422;45.802;16.114;2022-12-17T14:08:41;55.20;;;31.40;;
48623;SDS011;34422;45.802;16.114;2022-12-17T14:11:09;66.13;;;34.53;;
48623;SDS011;34422;45.802;16.114;2022-12-17T14:13:55;70.00;;;38.00;;
48623;SDS011;34422;45.802;16.114;2022-12-17T14:16:23;67.32;;;36.20;;
48623;SDS011;34422;45.802;16.114;2022-12-17T14:18:51;67.72;;;37.05;;
48623;SDS011;34422;45.802;16.114;2022-12-17T14:21:19;68.18;;;37.13;;
48623;SDS011;34422;45.802;16.114;2022-12-17T14:23:48;72.55;;;37.67;;
48623;SDS011;34422;45.802;16.114;2022-12-17T14:26:16;69.45;;;34.83;;
48623;SDS011;34422;45.802;16.114;2022-12-17T14:28:44;76.88;;;40.00;;
48623;SDS011;34422;45.802;16.114;2022-12-17T14:31:25;68.30;;;35.95;;
48623;SDS011;34422;45.802;16.114;2022-12-17T14:36:36;89.85;;;48.08;;
48623;SDS011;34422;45.802;16.114;2022-12-17T14:39:22;77.60;;;40.33;;
48623;SDS011;34422;45.802;16.114;2022-12-17T14:41:51;59.25;;;34.97;;
48623;SDS011;34422;45.802;16.114;2022-12-17T14:44:47;64.63;;;35.85;;
48623;SDS011;34422;45.802;16.114;2022-12-17T14:47:23;61.67;;;36.65;;
48623;SDS011;34422;45.802;16.114;2022-12-17T14:52:36;62.38;;;36.75;;
48623;SDS011;34422;45.802;16.114;2022-12-17T14:58:25;63.78;;;36.67;;
48623;SDS011;34422;45.802;16.114;2022-12-17T15:01:10;65.35;;;36.63;;
48623;SDS011;34422;45.802;16.114;2022-12-17T15:03:42;71.72;;;36.22;;
48623;SDS011;34422;45.802;16.114;2022-12-17T15:06:12;69.60;;;35.67;;
48623;SDS011;34422;45.802;16.114;2022-12-17T15:08:44;64.80;;;33.72;;
48623;SDS011;34422;45.802;16.114;2022-12-17T15:11:16;73.30;;;37.17;;
48623;SDS011;34422;45.802;16.114;2022-12-17T15:13:45;68.00;;;38.00;;
48623;SDS011;34422;45.802;16.114;2022-12-17T15:16:12;69.55;;;38.05;;
48623;SDS011;34422;45.802;16.114;2022-12-17T15:18:39;71.30;;;39.55;;
48623;SDS011;34422;45.802;16.114;2022-12-17T15:21:06;74.97;;;41.03;;
48623;SDS011;34422;45.802;16.114;2022-12-17T15:23:36;80.38;;;46.00;;
48623;SDS011;34422;45.802;16.114;2022-12-17T15:26:08;77.50;;;41.75;;
48623;SDS011;34422;45.802;16.114;2022-12-17T15:28:35;82.35;;;44.88;;
48623;SDS011;34422;45.802;16.114;2022-12-17T15:31:02;82.60;;;44.25;;
48623;SDS011;34422;45.802;16.114;2022-12-17T15:33:29;85.82;;;46.58;;
48623;SDS011;34422;45.802;16.114;2022-12-17T15:35:56;82.43;;;43.05;;
48623;SDS011;34422;45.802;16.114;2022-12-17T15:38:24;66.47;;;37.20;;
48623;SDS011;34422;45.802;16.114;2022-12-17T15:40:51;60.05;;;33.13;;
48623;SDS011;34422;45.802;16.114;2022-12-17T15:43:18;62.70;;;32.28;;
48623;SDS011;34422;45.802;16.114;2022-12-17T15:45:46;62.00;;;35.05;;
48623;SDS011;34422;45.802;16.114;2022-12-17T15:48:15;61.40;;;33.92;;
48623;SDS011;34422;45.802;16.114;2022-12-17T15:50:44;63.78;;;35.55;;
48623;SDS011;34422;45.802;16.114;2022-12-17T15:53:12;68.32;;;35.75;;
48623;SDS011;34422;45.802;16.114;2022-12-17T15:55:39;64.97;;;38.53;;
48623;SDS011;34422;45.802;16.114;2022-12-17T15:58:06;67.63;;;37.20;;
48623;SDS011;34422;45.802;16.114;2022-12-17T16:00:34;66.97;;;35.08;;
48623;SDS011;34422;45.802;16.114;2022-12-17T16:03:01;68.47;;;34.58;;
48623;SDS011;34422;45.802;16.114;2022-12-17T16:05:28;66.85;;;35.80;;
48623;SDS011;34422;45.802;16.114;2022-12-17T16:07:55;63.78;;;33.80;;
48623;SDS011;34422;45.802;16.114;2022-12-17T16:10:24;61.97;;;32.80;;
48623;SDS011;34422;45.802;16.114;2022-12-17T16:12:51;63.33;;;33.35;;
48623;SDS011;34422;45.802;16.114;2022-12-17T16:15:18;64.55;;;34.72;;
48623;SDS011;34422;45.802;16.114;2022-12-17T16:17:44;63.50;;;34.47;;
48623;SDS011;34422;45.802;16.114;2022-12-17T16:20:11;63.33;;;33.13;;
48623;SDS011;34422;45.802;16.114;2022-12-17T16:22:38;67.18;;;36.78;;
48623;SDS011;34422;45.802;16.114;2022-12-17T16:25:05;66.88;;;38.25;;
48623;SDS011;34422;45.802;16.114;2022-12-17T16:27:32;61.92;;;35.45;;
48623;SDS011;34422;45.802;16.114;2022-12-17T16:29:59;63.60;;;34.17;;
48623;SDS011;34422;45.802;16.114;2022-12-17T16:32:25;63.88;;;33.38;;
48623;SDS011;34422;45.802;16.114;2022-12-17T16:34:52;64.57;;;36.03;;
48623;SDS011;34422;45.802;16.114;2022-12-17T16:37:19;64.95;;;35.30;;
48623;SDS011;34422;45.802;16.114;2022-12-17T16:39:46;64.07;;;32.08;;
48623;SDS011;34422;45.802;16.114;2022-12-17T16:42:13;61.40;;;32.33;;
48623;SDS011;34422;45.802;16.114;2022-12-17T16:44:39;62.47;;;33.35;;
48623;SDS011;34422;45.802;16.114;2022-12-17T16:47:06;63.72;;;34.53;;
48623;SDS011;34422;45.802;16.114;2022-12-17T16:49:33;64.68;;;34.75;;
48623;SDS011;34422;45.802;16.114;2022-12-17T16:52:00;70.57;;;36.83;;
48623;SDS011;34422;45.802;16.114;2022-12-17T16:54:29;64.25;;;34.95;;
48623;SDS011;34422;45.802;16.114;2022-12-17T16:56:57;63.08;;;34.13;;
48623;SDS011;34422;45.802;16.114;2022-12-17T16:59:26;71.13;;;37.10;;
48623;SDS011;34422;45.802;16.114;2022-12-17T17:01:53;81.55;;;39.92;;
48623;SDS011;34422;45.802;16.114;2022-12-17T17:04:21;83.25;;;42.85;;
48623;SDS011;34422;45.802;16.114;2022-12-17T17:06:50;67.57;;;35.67;;